Terminal Aerodrome Forecast
Issued by NWS Bismarck, ND

Home | Current Version | Previous Version | Graphics & Text | Print | Product List | Glossary On
Versions: 1 2 3 4 5 6 7 8 9 10 11 12 13 14 15 16 17 18 19 20 21 22 23 24 25 26 27
673
FTUS43 KBIS 252209 AAB
TAFBIS
TAF AMD
KBIS 252209Z 2522/2618 23004KT P6SM SCT025 BKN060
     FM260000 21004KT P6SM SCT020 BKN040
     FM260800 32013G21KT P6SM BKN030
     FM261300 27006KT P6SM BKN110
     FM261600 21004KT P6SM BKN090=

USA.gov is the U.S. government's official web portal to all federal, state and local government web resources and services.